Airfield :
LOGIN :

Register | Disclaimer

   EN    FR    IT 

 










Legend :    VFR   Marginal VFR   IFR   Intensive IFR   Very Intensive IFR
Visi :
Ceiling :
>= 8 km
>= 3000ft
5 to 8 km
1000 to 3000 ft
1500m to 5 km
500 to 1000 ft
800 to 1500m
200 to 500 ft
< 800m
< 200 ft
Symbols :   Thunderstorms  Fog  Heavy snow  Heavy precipitations  Wind > 20 kt
SIGMETs :     Misc.  Thunderstorms  Icing  Turbulence  Mountain Waves  Volcanic Ashes






- Airport Elevation : 235 ft
- IATA code : BZG


EPBY - Bydgoszcz

CURRENT METAR :
  • 020130Z 10007KT 9999 SCT013 OVC021 00/M02 Q1028

EXPIRED METARs :
  • 020100Z 09008KT 9999 BKN019 OVC022 01/M02 Q1028
  • 020030Z 08007KT 9999 OVC017 01/M01 Q1028
  • 020000Z 08007KT 7000 SCT007 OVC019 01/M01 Q1028
  • 012330Z 07008KT 9000 SCT007 BKN013 01/M00 Q1029
  • 012300Z 05007KT 9000 OVC006 01/M00 Q1029
  • 012230Z 05006KT 9999 OVC007 01/M00 Q1029

TAF TAF EPBY
Valid from the 02 at 00:00 until the 03 at 00:00 UTC


012330Z 0200/0224 07006KT 9999 BKN010
TEMPO 0200/0207 4000 -SN BR BKN005
BECMG 0207/0210 BKN017



MET'MAP, your aeronautical weather chart ! - Copyright ORBIFLY December 2007 - Disclaimer

ORBIFLY MET'MAP TEAM :

Programming & Development : Alexandra Zaïnal
Original concept : Baudouin d'Aumeries
Technical & hardware support : Manuel Goepfert
Assistance : Marc-Olivier Méhu




SOURCES & CREDITS :

   NOAA